sensor_id;sensor_type;location;lat;lon;timestamp;P1;durP1;ratioP1;P2;durP2;ratioP2
20365;SDS011;10341;49.894;8.822;2022-12-11T00:02:05;35.72;;;15.23;;
20365;SDS011;10341;49.894;8.822;2022-12-11T00:07:25;36.30;;;15.90;;
20365;SDS011;10341;49.894;8.822;2022-12-11T00:12:45;33.65;;;14.00;;
20365;SDS011;10341;49.894;8.822;2022-12-11T00:18:04;29.02;;;13.32;;
20365;SDS011;10341;49.894;8.822;2022-12-11T00:23:24;29.73;;;14.23;;
20365;SDS011;10341;49.894;8.822;2022-12-11T00:28:43;29.45;;;13.75;;
20365;SDS011;10341;49.894;8.822;2022-12-11T00:34:03;31.85;;;14.15;;
20365;SDS011;10341;49.894;8.822;2022-12-11T00:39:22;31.15;;;13.52;;
20365;SDS011;10341;49.894;8.822;2022-12-11T00:44:42;33.50;;;14.30;;
20365;SDS011;10341;49.894;8.822;2022-12-11T00:50:02;36.83;;;14.38;;
20365;SDS011;10341;49.894;8.822;2022-12-11T00:55:21;34.28;;;15.07;;
20365;SDS011;10341;49.894;8.822;2022-12-11T01:00:41;34.88;;;15.18;;
20365;SDS011;10341;49.894;8.822;2022-12-11T01:06:01;35.88;;;16.05;;
20365;SDS011;10341;49.894;8.822;2022-12-11T01:11:21;33.08;;;15.38;;
20365;SDS011;10341;49.894;8.822;2022-12-11T01:16:40;34.17;;;15.80;;
20365;SDS011;10341;49.894;8.822;2022-12-11T01:22:00;38.33;;;16.45;;
20365;SDS011;10341;49.894;8.822;2022-12-11T01:27:19;37.38;;;16.58;;
20365;SDS011;10341;49.894;8.822;2022-12-11T01:32:39;38.35;;;17.13;;
20365;SDS011;10341;49.894;8.822;2022-12-11T01:37:59;40.60;;;17.15;;
20365;SDS011;10341;49.894;8.822;2022-12-11T01:43:18;37.17;;;16.15;;
20365;SDS011;10341;49.894;8.822;2022-12-11T01:48:38;45.35;;;18.48;;
20365;SDS011;10341;49.894;8.822;2022-12-11T01:53:58;38.67;;;17.95;;
20365;SDS011;10341;49.894;8.822;2022-12-11T01:59:22;42.25;;;18.35;;
20365;SDS011;10341;49.894;8.822;2022-12-11T02:04:43;40.28;;;17.83;;
20365;SDS011;10341;49.894;8.822;2022-12-11T02:10:05;43.20;;;17.40;;
20365;SDS011;10341;49.894;8.822;2022-12-11T02:15:36;38.72;;;17.95;;
20365;SDS011;10341;49.894;8.822;2022-12-11T02:21:14;37.10;;;17.30;;
20365;SDS011;10341;49.894;8.822;2022-12-11T02:27:13;39.13;;;17.52;;
20365;SDS011;10341;49.894;8.822;2022-12-11T02:32:46;35.05;;;16.30;;
20365;SDS011;10341;49.894;8.822;2022-12-11T02:38:20;40.80;;;17.08;;
20365;SDS011;10341;49.894;8.822;2022-12-11T02:43:45;35.45;;;16.17;;
20365;SDS011;10341;49.894;8.822;2022-12-11T02:49:06;39.58;;;18.25;;
20365;SDS011;10341;49.894;8.822;2022-12-11T02:54:30;39.72;;;17.80;;
20365;SDS011;10341;49.894;8.822;2022-12-11T02:59:53;37.92;;;16.95;;
20365;SDS011;10341;49.894;8.822;2022-12-11T03:05:13;36.63;;;16.67;;
20365;SDS011;10341;49.894;8.822;2022-12-11T03:10:33;40.95;;;17.92;;
20365;SDS011;10341;49.894;8.822;2022-12-11T03:22:16;41.65;;;17.63;;
20365;SDS011;10341;49.894;8.822;2022-12-11T03:33:03;38.60;;;18.27;;
20365;SDS011;10341;49.894;8.822;2022-12-11T03:38:40;43.33;;;19.02;;
20365;SDS011;10341;49.894;8.822;2022-12-11T03:44:09;43.42;;;20.00;;
20365;SDS011;10341;49.894;8.822;2022-12-11T03:49:32;42.40;;;19.25;;
20365;SDS011;10341;49.894;8.822;2022-12-11T03:54:56;38.13;;;18.48;;
20365;SDS011;10341;49.894;8.822;2022-12-11T04:00:19;40.70;;;18.73;;
20365;SDS011;10341;49.894;8.822;2022-12-11T04:05:49;42.20;;;18.13;;
20365;SDS011;10341;49.894;8.822;2022-12-11T04:11:10;41.13;;;18.05;;
20365;SDS011;10341;49.894;8.822;2022-12-11T04:16:48;43.88;;;20.35;;
20365;SDS011;10341;49.894;8.822;2022-12-11T04:27:47;40.35;;;17.92;;
20365;SDS011;10341;49.894;8.822;2022-12-11T04:33:07;39.03;;;18.42;;
20365;SDS011;10341;49.894;8.822;2022-12-11T04:38:26;39.45;;;17.67;;
20365;SDS011;10341;49.894;8.822;2022-12-11T04:43:46;39.28;;;17.15;;
20365;SDS011;10341;49.894;8.822;2022-12-11T04:49:06;41.13;;;17.90;;
20365;SDS011;10341;49.894;8.822;2022-12-11T04:54:27;38.95;;;18.88;;
20365;SDS011;10341;49.894;8.822;2022-12-11T04:59:47;45.22;;;18.52;;
20365;SDS011;10341;49.894;8.822;2022-12-11T05:05:08;41.88;;;19.70;;
20365;SDS011;10341;49.894;8.822;2022-12-11T05:10:28;48.85;;;21.02;;
20365;SDS011;10341;49.894;8.822;2022-12-11T05:15:48;45.63;;;20.23;;
20365;SDS011;10341;49.894;8.822;2022-12-11T05:21:09;42.85;;;20.10;;
20365;SDS011;10341;49.894;8.822;2022-12-11T05:26:33;46.25;;;20.67;;
20365;SDS011;10341;49.894;8.822;2022-12-11T05:31:53;43.92;;;19.85;;
20365;SDS011;10341;49.894;8.822;2022-12-11T05:37:12;41.50;;;18.33;;
20365;SDS011;10341;49.894;8.822;2022-12-11T05:42:32;42.53;;;19.35;;
20365;SDS011;10341;49.894;8.822;2022-12-11T05:47:52;43.65;;;18.58;;
20365;SDS011;10341;49.894;8.822;2022-12-11T05:58:31;37.45;;;17.63;;
20365;SDS011;10341;49.894;8.822;2022-12-11T06:03:52;37.70;;;17.90;;
20365;SDS011;10341;49.894;8.822;2022-12-11T06:09:13;40.67;;;19.20;;
20365;SDS011;10341;49.894;8.822;2022-12-11T06:14:34;42.80;;;18.60;;
20365;SDS011;10341;49.894;8.822;2022-12-11T06:19:54;42.90;;;18.85;;
20365;SDS011;10341;49.894;8.822;2022-12-11T06:25:18;42.72;;;18.77;;
20365;SDS011;10341;49.894;8.822;2022-12-11T06:30:37;40.85;;;19.15;;
20365;SDS011;10341;49.894;8.822;2022-12-11T06:36:01;44.80;;;19.33;;
20365;SDS011;10341;49.894;8.822;2022-12-11T06:41:25;37.60;;;18.48;;
20365;SDS011;10341;49.894;8.822;2022-12-11T06:46:44;45.30;;;20.92;;
20365;SDS011;10341;49.894;8.822;2022-12-11T06:57:24;45.13;;;19.92;;
20365;SDS011;10341;49.894;8.822;2022-12-11T07:02:44;40.05;;;17.75;;
20365;SDS011;10341;49.894;8.822;2022-12-11T07:08:04;44.60;;;19.02;;
20365;SDS011;10341;49.894;8.822;2022-12-11T07:13:25;48.55;;;20.05;;
20365;SDS011;10341;49.894;8.822;2022-12-11T07:18:48;42.25;;;19.33;;
20365;SDS011;10341;49.894;8.822;2022-12-11T07:24:08;44.60;;;19.27;;
20365;SDS011;10341;49.894;8.822;2022-12-11T07:29:28;45.25;;;20.10;;
20365;SDS011;10341;49.894;8.822;2022-12-11T07:34:47;42.70;;;19.13;;
20365;SDS011;10341;49.894;8.822;2022-12-11T07:40:08;42.30;;;18.73;;
20365;SDS011;10341;49.894;8.822;2022-12-11T07:45:28;43.75;;;19.00;;
20365;SDS011;10341;49.894;8.822;2022-12-11T07:50:47;43.75;;;18.80;;
20365;SDS011;10341;49.894;8.822;2022-12-11T08:01:26;43.73;;;19.23;;
20365;SDS011;10341;49.894;8.822;2022-12-11T08:06:47;38.25;;;18.25;;
20365;SDS011;10341;49.894;8.822;2022-12-11T08:12:06;44.08;;;19.95;;
20365;SDS011;10341;49.894;8.822;2022-12-11T08:17:26;39.65;;;18.10;;
20365;SDS011;10341;49.894;8.822;2022-12-11T08:22:46;41.47;;;18.70;;
20365;SDS011;10341;49.894;8.822;2022-12-11T08:28:06;47.22;;;21.15;;
20365;SDS011;10341;49.894;8.822;2022-12-11T08:33:25;45.08;;;19.77;;
20365;SDS011;10341;49.894;8.822;2022-12-11T08:44:08;45.47;;;19.27;;
20365;SDS011;10341;49.894;8.822;2022-12-11T08:49:29;43.25;;;19.15;;
20365;SDS011;10341;49.894;8.822;2022-12-11T08:54:49;49.78;;;21.27;;
20365;SDS011;10341;49.894;8.822;2022-12-11T09:00:10;41.50;;;19.45;;
20365;SDS011;10341;49.894;8.822;2022-12-11T09:05:30;40.33;;;19.40;;
20365;SDS011;10341;49.894;8.822;2022-12-11T09:10:49;46.25;;;20.10;;
20365;SDS011;10341;49.894;8.822;2022-12-11T09:16:10;40.97;;;19.45;;
20365;SDS011;10341;49.894;8.822;2022-12-11T09:21:32;42.28;;;19.60;;
20365;SDS011;10341;49.894;8.822;2022-12-11T09:26:52;45.10;;;19.08;;
20365;SDS011;10341;49.894;8.822;2022-12-11T09:32:12;44.35;;;20.67;;
20365;SDS011;10341;49.894;8.822;2022-12-11T09:37:32;46.90;;;20.98;;
20365;SDS011;10341;49.894;8.822;2022-12-11T09:42:53;43.10;;;20.92;;
20365;SDS011;10341;49.894;8.822;2022-12-11T09:48:14;43.13;;;20.75;;
20365;SDS011;10341;49.894;8.822;2022-12-11T09:53:37;46.53;;;20.65;;
20365;SDS011;10341;49.894;8.822;2022-12-11T10:15:30;44.03;;;20.90;;
20365;SDS011;10341;49.894;8.822;2022-12-11T10:20:52;45.30;;;20.88;;
20365;SDS011;10341;49.894;8.822;2022-12-11T10:26:15;83.47;;;37.00;;
20365;SDS011;10341;49.894;8.822;2022-12-11T10:31:49;43.47;;;20.90;;
20365;SDS011;10341;49.894;8.822;2022-12-11T10:37:15;48.50;;;21.25;;
20365;SDS011;10341;49.894;8.822;2022-12-11T10:42:35;42.65;;;19.42;;
20365;SDS011;10341;49.894;8.822;2022-12-11T10:48:05;43.85;;;21.60;;
20365;SDS011;10341;49.894;8.822;2022-12-11T10:53:29;44.65;;;21.10;;
20365;SDS011;10341;49.894;8.822;2022-12-11T10:58:50;43.25;;;20.40;;
20365;SDS011;10341;49.894;8.822;2022-12-11T11:04:14;48.33;;;21.25;;
20365;SDS011;10341;49.894;8.822;2022-12-11T11:09:38;48.95;;;22.67;;
20365;SDS011;10341;49.894;8.822;2022-12-11T11:15:21;44.67;;;21.20;;
20365;SDS011;10341;49.894;8.822;2022-12-11T11:20:45;53.28;;;23.60;;
20365;SDS011;10341;49.894;8.822;2022-12-11T11:26:06;56.17;;;24.63;;
20365;SDS011;10341;49.894;8.822;2022-12-11T11:31:31;50.63;;;21.83;;
20365;SDS011;10341;49.894;8.822;2022-12-11T11:36:56;48.80;;;23.73;;
20365;SDS011;10341;49.894;8.822;2022-12-11T11:42:18;51.15;;;22.05;;
20365;SDS011;10341;49.894;8.822;2022-12-11T11:47:44;47.92;;;22.13;;
20365;SDS011;10341;49.894;8.822;2022-12-11T11:53:21;49.13;;;23.20;;
20365;SDS011;10341;49.894;8.822;2022-12-11T12:04:34;44.70;;;22.05;;
20365;SDS011;10341;49.894;8.822;2022-12-11T12:09:58;51.05;;;23.38;;
20365;SDS011;10341;49.894;8.822;2022-12-11T12:15:50;53.78;;;25.73;;
20365;SDS011;10341;49.894;8.822;2022-12-11T12:32:33;46.08;;;23.02;;
20365;SDS011;10341;49.894;8.822;2022-12-11T12:38:22;47.80;;;21.33;;
20365;SDS011;10341;49.894;8.822;2022-12-11T12:44:16;44.67;;;22.40;;
20365;SDS011;10341;49.894;8.822;2022-12-11T12:49:39;48.38;;;21.65;;
20365;SDS011;10341;49.894;8.822;2022-12-11T12:55:02;50.00;;;22.33;;
20365;SDS011;10341;49.894;8.822;2022-12-11T13:00:44;50.85;;;22.70;;
20365;SDS011;10341;49.894;8.822;2022-12-11T13:11:31;51.22;;;21.77;;
20365;SDS011;10341;49.894;8.822;2022-12-11T13:17:03;44.95;;;20.58;;
20365;SDS011;10341;49.894;8.822;2022-12-11T13:22:25;47.75;;;20.55;;
20365;SDS011;10341;49.894;8.822;2022-12-11T13:33:13;44.03;;;19.92;;
20365;SDS011;10341;49.894;8.822;2022-12-11T13:38:36;47.63;;;21.10;;
20365;SDS011;10341;49.894;8.822;2022-12-11T13:44:02;47.05;;;20.13;;
20365;SDS011;10341;49.894;8.822;2022-12-11T13:49:24;39.38;;;19.20;;
20365;SDS011;10341;49.894;8.822;2022-12-11T13:54:47;47.55;;;20.00;;
20365;SDS011;10341;49.894;8.822;2022-12-11T14:00:18;44.60;;;18.45;;
20365;SDS011;10341;49.894;8.822;2022-12-11T14:05:41;51.15;;;25.30;;
20365;SDS011;10341;49.894;8.822;2022-12-11T14:11:01;41.58;;;20.23;;
20365;SDS011;10341;49.894;8.822;2022-12-11T14:16:22;36.97;;;17.10;;
20365;SDS011;10341;49.894;8.822;2022-12-11T14:21:53;40.30;;;16.98;;
20365;SDS011;10341;49.894;8.822;2022-12-11T14:27:14;45.47;;;19.75;;
20365;SDS011;10341;49.894;8.822;2022-12-11T14:32:37;36.42;;;17.48;;
20365;SDS011;10341;49.894;8.822;2022-12-11T14:38:02;38.17;;;16.13;;
20365;SDS011;10341;49.894;8.822;2022-12-11T14:43:41;39.33;;;18.05;;
20365;SDS011;10341;49.894;8.822;2022-12-11T14:49:15;35.25;;;16.25;;
20365;SDS011;10341;49.894;8.822;2022-12-11T14:54:54;35.33;;;16.20;;
20365;SDS011;10341;49.894;8.822;2022-12-11T15:00:29;36.03;;;15.45;;
20365;SDS011;10341;49.894;8.822;2022-12-11T15:05:54;34.50;;;15.32;;
20365;SDS011;10341;49.894;8.822;2022-12-11T15:11:15;33.35;;;16.70;;
20365;SDS011;10341;49.894;8.822;2022-12-11T15:16:37;36.88;;;17.15;;
20365;SDS011;10341;49.894;8.822;2022-12-11T15:22:02;43.13;;;17.20;;
20365;SDS011;10341;49.894;8.822;2022-12-11T15:32:48;49.00;;;21.27;;
20365;SDS011;10341;49.894;8.822;2022-12-11T15:38:23;47.50;;;20.73;;
20365;SDS011;10341;49.894;8.822;2022-12-11T15:44:05;43.50;;;19.13;;
20365;SDS011;10341;49.894;8.822;2022-12-11T15:49:25;48.20;;;20.80;;
20365;SDS011;10341;49.894;8.822;2022-12-11T15:54:44;44.22;;;19.05;;
20365;SDS011;10341;49.894;8.822;2022-12-11T16:00:05;39.03;;;18.00;;
20365;SDS011;10341;49.894;8.822;2022-12-11T16:05:25;37.25;;;17.58;;
20365;SDS011;10341;49.894;8.822;2022-12-11T16:10:45;44.72;;;18.15;;
20365;SDS011;10341;49.894;8.822;2022-12-11T16:16:05;37.60;;;16.92;;
20365;SDS011;10341;49.894;8.822;2022-12-11T16:21:25;53.03;;;22.35;;
20365;SDS011;10341;49.894;8.822;2022-12-11T16:32:04;43.92;;;18.33;;
20365;SDS011;10341;49.894;8.822;2022-12-11T16:37:26;45.38;;;20.30;;
20365;SDS011;10341;49.894;8.822;2022-12-11T16:42:45;42.58;;;18.08;;
20365;SDS011;10341;49.894;8.822;2022-12-11T16:48:05;45.88;;;20.05;;
20365;SDS011;10341;49.894;8.822;2022-12-11T16:53:24;45.97;;;18.70;;
20365;SDS011;10341;49.894;8.822;2022-12-11T16:58:44;40.03;;;17.70;;
20365;SDS011;10341;49.894;8.822;2022-12-11T17:04:05;45.35;;;18.58;;
20365;SDS011;10341;49.894;8.822;2022-12-11T17:09:24;42.33;;;19.17;;
20365;SDS011;10341;49.894;8.822;2022-12-11T17:14:45;46.63;;;20.17;;
20365;SDS011;10341;49.894;8.822;2022-12-11T17:20:05;42.42;;;18.95;;
20365;SDS011;10341;49.894;8.822;2022-12-11T17:25:25;37.60;;;16.77;;
20365;SDS011;10341;49.894;8.822;2022-12-11T17:30:44;39.67;;;17.83;;
20365;SDS011;10341;49.894;8.822;2022-12-11T17:36:06;46.67;;;19.27;;
20365;SDS011;10341;49.894;8.822;2022-12-11T17:46:45;48.30;;;18.90;;
20365;SDS011;10341;49.894;8.822;2022-12-11T17:52:05;45.45;;;20.17;;
20365;SDS011;10341;49.894;8.822;2022-12-11T17:57:24;44.22;;;19.27;;
20365;SDS011;10341;49.894;8.822;2022-12-11T18:08:03;46.67;;;18.55;;
20365;SDS011;10341;49.894;8.822;2022-12-11T18:13:25;51.40;;;21.90;;
20365;SDS011;10341;49.894;8.822;2022-12-11T18:18:45;47.95;;;21.30;;
20365;SDS011;10341;49.894;8.822;2022-12-11T18:24:06;43.33;;;18.75;;
20365;SDS011;10341;49.894;8.822;2022-12-11T18:29:26;41.83;;;18.65;;
20365;SDS011;10341;49.894;8.822;2022-12-11T18:34:46;48.17;;;19.67;;
20365;SDS011;10341;49.894;8.822;2022-12-11T18:45:25;43.30;;;18.92;;
20365;SDS011;10341;49.894;8.822;2022-12-11T18:50:45;52.60;;;20.63;;
20365;SDS011;10341;49.894;8.822;2022-12-11T18:56:08;48.63;;;19.77;;
20365;SDS011;10341;49.894;8.822;2022-12-11T19:01:29;48.83;;;20.65;;
20365;SDS011;10341;49.894;8.822;2022-12-11T19:06:51;55.58;;;20.85;;
20365;SDS011;10341;49.894;8.822;2022-12-11T19:12:10;54.72;;;21.73;;
20365;SDS011;10341;49.894;8.822;2022-12-11T19:17:29;50.25;;;21.23;;
20365;SDS011;10341;49.894;8.822;2022-12-11T19:22:49;49.97;;;21.75;;
20365;SDS011;10341;49.894;8.822;2022-12-11T19:33:27;48.50;;;20.10;;
20365;SDS011;10341;49.894;8.822;2022-12-11T19:38:47;51.13;;;19.58;;
20365;SDS011;10341;49.894;8.822;2022-12-11T19:44:07;42.83;;;17.80;;
20365;SDS011;10341;49.894;8.822;2022-12-11T19:49:27;44.35;;;18.50;;
20365;SDS011;10341;49.894;8.822;2022-12-11T19:54:47;50.22;;;20.80;;
20365;SDS011;10341;49.894;8.822;2022-12-11T20:00:07;44.42;;;19.02;;
20365;SDS011;10341;49.894;8.822;2022-12-11T20:05:31;50.67;;;20.77;;
20365;SDS011;10341;49.894;8.822;2022-12-11T20:10:50;46.92;;;19.40;;
20365;SDS011;10341;49.894;8.822;2022-12-11T20:21:30;40.42;;;17.50;;
20365;SDS011;10341;49.894;8.822;2022-12-11T20:26:51;44.75;;;18.13;;
20365;SDS011;10341;49.894;8.822;2022-12-11T20:32:11;47.20;;;18.50;;
20365;SDS011;10341;49.894;8.822;2022-12-11T20:42:50;41.85;;;17.77;;
20365;SDS011;10341;49.894;8.822;2022-12-11T20:48:10;43.13;;;18.25;;
20365;SDS011;10341;49.894;8.822;2022-12-11T20:58:49;62.10;;;25.30;;
20365;SDS011;10341;49.894;8.822;2022-12-11T21:04:09;50.13;;;21.27;;
20365;SDS011;10341;49.894;8.822;2022-12-11T21:09:28;64.70;;;25.45;;
20365;SDS011;10341;49.894;8.822;2022-12-11T21:14:48;50.45;;;21.13;;
20365;SDS011;10341;49.894;8.822;2022-12-11T21:20:07;57.10;;;25.83;;
20365;SDS011;10341;49.894;8.822;2022-12-11T21:25:27;55.72;;;23.88;;
20365;SDS011;10341;49.894;8.822;2022-12-11T21:30:47;53.92;;;21.35;;
20365;SDS011;10341;49.894;8.822;2022-12-11T21:36:07;59.72;;;22.90;;
20365;SDS011;10341;49.894;8.822;2022-12-11T21:41:28;51.85;;;22.45;;
20365;SDS011;10341;49.894;8.822;2022-12-11T21:52:07;56.17;;;22.90;;
20365;SDS011;10341;49.894;8.822;2022-12-11T21:57:27;59.05;;;23.40;;
20365;SDS011;10341;49.894;8.822;2022-12-11T22:02:47;55.08;;;23.50;;
20365;SDS011;10341;49.894;8.822;2022-12-11T22:08:07;51.65;;;23.35;;
20365;SDS011;10341;49.894;8.822;2022-12-11T22:13:27;56.17;;;22.98;;
20365;SDS011;10341;49.894;8.822;2022-12-11T22:18:46;57.38;;;26.17;;
20365;SDS011;10341;49.894;8.822;2022-12-11T22:24:06;57.42;;;23.75;;
20365;SDS011;10341;49.894;8.822;2022-12-11T22:29:25;44.65;;;20.55;;
20365;SDS011;10341;49.894;8.822;2022-12-11T22:34:45;54.97;;;26.92;;
20365;SDS011;10341;49.894;8.822;2022-12-11T22:40:05;54.85;;;22.40;;
20365;SDS011;10341;49.894;8.822;2022-12-11T22:50:44;46.40;;;19.50;;
20365;SDS011;10341;49.894;8.822;2022-12-11T22:56:04;46.42;;;20.35;;
20365;SDS011;10341;49.894;8.822;2022-12-11T23:01:24;48.55;;;20.90;;
20365;SDS011;10341;49.894;8.822;2022-12-11T23:06:44;50.28;;;20.38;;
20365;SDS011;10341;49.894;8.822;2022-12-11T23:12:04;49.97;;;19.98;;
20365;SDS011;10341;49.894;8.822;2022-12-11T23:17:23;47.03;;;21.42;;
20365;SDS011;10341;49.894;8.822;2022-12-11T23:22:43;48.08;;;19.33;;
20365;SDS011;10341;49.894;8.822;2022-12-11T23:28:03;49.22;;;20.15;;
20365;SDS011;10341;49.894;8.822;2022-12-11T23:33:23;49.85;;;20.35;;
20365;SDS011;10341;49.894;8.822;2022-12-11T23:38:43;43.67;;;19.08;;
20365;SDS011;10341;49.894;8.822;2022-12-11T23:44:02;55.50;;;21.35;;
20365;SDS011;10341;49.894;8.822;2022-12-11T23:49:22;55.63;;;22.10;;
20365;SDS011;10341;49.894;8.822;2022-12-11T23:54:42;54.72;;;21.08;;
